Time;durP1;ratioP1;P1;durP2;ratioP2;P2;SDS_P1;SDS_P2;PMS_P1;PMS_P2;Temp;Humidity;BMP_temperature;BMP_pressure;BME280_temperature;BME280_humidity;BME280_pressure;Samples;Min_cycle;Max_cycle;Signal;HPM_P1;HPM_P2
2021/11/02 00:02:12;;;;;;;4.93;2.83;;;;;;;6.46;86.13;99767.53;4978487;28;20038;-74
2021/11/02 00:04:37;;;;;;;9.02;3.33;;;;;;;6.45;86.36;99768.47;4976934;28;20081;-74
2021/11/02 00:07:04;;;;;;;11.05;3.38;;;;;;;6.45;86.13;99771.03;4972025;28;20108;-74
2021/11/02 00:09:32;;;;;;;7.70;3.67;;;;;;;6.42;86.17;99774.75;4972470;28;20035;-74
2021/11/02 00:12:02;;;;;;;9.38;3.10;;;;;;;6.39;86.23;99771.66;4975432;28;20062;-74
2021/11/02 00:14:29;;;;;;;7.43;2.40;;;;;;;6.35;86.31;99772.94;4985902;28;20106;-74
2021/11/02 00:16:59;;;;;;;7.28;2.40;;;;;;;6.28;86.72;99775.31;4979022;28;20062;-74
2021/11/02 00:19:27;;;;;;;7.38;2.00;;;;;;;6.27;86.67;99770.31;4970269;28;20039;-74
2021/11/02 00:21:55;;;;;;;11.40;2.60;;;;;;;6.19;86.61;99769.28;4982281;28;20042;-74
2021/11/02 00:27:01;;;;;;;6.38;2.85;;;;;;;6.09;86.62;99767.81;4975056;28;20540;-74
2021/11/02 00:29:27;;;;;;;8.18;4.00;;;;;;;5.99;86.41;99768.72;4982237;28;20030;-74
2021/11/02 00:31:53;;;;;;;7.63;2.85;;;;;;;5.93;86.48;99760.75;4976222;28;20483;-74
2021/11/02 00:34:18;;;;;;;13.07;2.83;;;;;;;5.90;86.41;99758.50;4983161;28;20030;-75
2021/11/02 00:36:44;;;;;;;5.03;2.10;;;;;;;5.87;86.85;99759.56;4986928;28;20076;-74
2021/11/02 00:39:10;;;;;;;5.82;1.90;;;;;;;5.84;86.84;99755.56;4979112;28;20035;-74
2021/11/02 00:41:36;;;;;;;5.25;2.35;;;;;;;5.82;86.77;99749.75;4975204;28;20034;-74
2021/11/02 00:44:02;;;;;;;10.30;2.63;;;;;;;5.83;86.18;99750.56;4977216;28;20454;-74
2021/11/02 00:46:32;;;;;;;9.23;2.40;;;;;;;5.77;86.53;99741.66;4978341;28;20069;-74
2021/11/02 00:48:58;;;;;;;4.63;2.10;;;;;;;5.71;86.80;99746.59;4982694;28;20083;-74
2021/11/02 00:51:25;;;;;;;4.60;1.95;;;;;;;5.65;87.08;99748.00;4982022;28;20479;-74
2021/11/02 00:53:50;;;;;;;5.78;1.70;;;;;;;5.62;86.84;99749.13;4989985;28;20089;-74
2021/11/02 00:56:17;;;;;;;4.32;1.70;;;;;;;5.56;87.29;99749.72;4982520;28;20038;-75
2021/11/02 00:58:42;;;;;;;9.73;2.30;;;;;;;5.53;87.15;99746.63;4982293;28;20563;-74
2021/11/02 01:01:08;;;;;;;5.55;1.83;;;;;;;5.48;87.30;99749.63;4971852;28;20031;-74
2021/11/02 01:03:36;;;;;;;6.20;2.35;;;;;;;5.46;87.59;99744.66;4975867;28;20138;-74
2021/11/02 01:06:03;;;;;;;3.17;1.90;;;;;;;5.46;87.40;99744.66;4982789;28;20056;-75
2021/11/02 01:08:29;;;;;;;6.18;1.95;;;;;;;5.46;87.75;99739.53;4980746;28;20407;-74
2021/11/02 01:10:55;;;;;;;5.15;2.25;;;;;;;5.43;87.80;99741.56;4967888;28;20045;-75
2021/11/02 01:13:20;;;;;;;8.52;2.00;;;;;;;5.44;87.68;99740.59;4983902;28;20360;-75
2021/11/02 01:15:46;;;;;;;11.82;2.70;;;;;;;5.44;87.26;99744.00;4977059;28;20498;-75
2021/11/02 01:18:12;;;;;;;5.05;2.08;;;;;;;5.44;87.78;99746.56;4981651;28;20045;-75
2021/11/02 01:20:38;;;;;;;4.57;1.92;;;;;;;5.42;87.22;99750.22;4974916;28;20402;-75
2021/11/02 01:23:06;;;;;;;10.82;2.50;;;;;;;5.37;86.79;99744.72;4975377;28;20071;-75
2021/11/02 01:25:31;;;;;;;5.75;2.22;;;;;;;5.31;86.85;99751.25;4984039;28;20026;-75
2021/11/02 01:27:57;;;;;;;8.85;2.42;;;;;;;5.28;87.14;99753.34;4980926;28;20030;-75
2021/11/02 01:30:28;;;;;;;10.10;2.53;;;;;;;5.25;87.29;99750.13;4978343;28;20069;-75
2021/11/02 01:32:54;;;;;;;4.60;2.25;;;;;;;5.25;87.45;99757.81;4973383;28;20031;-75
2021/11/02 01:35:20;;;;;;;5.95;1.95;;;;;;;5.26;87.55;99754.28;4979483;28;20430;-75
2021/11/02 01:37:56;;;;;;;7.88;2.13;;;;;;;5.23;87.74;99749.41;4974508;28;20031;-75
2021/11/02 01:40:22;;;;;;;7.43;1.80;;;;;;;5.20;87.81;99746.38;4980078;28;20084;-75
2021/11/02 01:42:49;;;;;;;8.93;2.17;;;;;;;5.20;87.90;99751.50;4968182;28;20035;-75
2021/11/02 01:45:18;;;;;;;7.97;2.15;;;;;;;5.18;87.52;99750.81;5015364;28;20049;-75
2021/11/02 01:47:47;;;;;;;4.05;2.00;;;;;;;5.14;87.48;99752.06;4982622;28;20499;-75
2021/11/02 01:50:19;;;;;;;7.55;2.30;;;;;;;5.11;87.75;99760.09;4978492;28;20121;-75
2021/11/02 01:52:46;;;;;;;7.78;2.42;;;;;;;5.09;87.36;99759.44;4975596;28;20321;-76
2021/11/02 01:55:13;;;;;;;5.80;2.28;;;;;;;5.08;87.35;99766.31;4959897;28;20034;-76
2021/11/02 01:57:41;;;;;;;7.38;2.00;;;;;;;5.07;87.55;99765.50;4959828;28;20444;-76
2021/11/02 02:00:11;;;;;;;10.25;2.83;;;;;;;5.06;87.14;99763.06;4971442;28;20038;-76
2021/11/02 02:03:10;;;;;;;6.70;2.40;;;;;;;5.04;87.53;99760.66;4980746;28;20067;-75
2021/11/02 02:06:08;;;;;;;10.40;2.08;;;;;;;5.03;87.27;99766.75;4982218;28;20030;-76
2021/11/02 02:08:34;;;;;;;6.35;2.45;;;;;;;4.99;87.32;99765.44;4959852;28;20395;-76
2021/11/02 02:11:01;;;;;;;5.05;1.95;;;;;;;4.93;87.77;99768.56;4978682;28;20109;-76
2021/11/02 02:13:32;;;;;;;8.07;2.20;;;;;;;4.93;87.69;99762.63;4978748;28;20026;-76
2021/11/02 02:16:04;;;;;;;3.08;1.50;;;;;;;4.90;87.53;99765.47;4981925;28;20038;-76
2021/11/02 02:18:29;;;;;;;7.75;2.10;;;;;;;4.87;87.75;99761.44;4962010;28;20035;-76
2021/11/02 02:21:17;;;;;;;4.53;1.90;;;;;;;4.86;87.61;99762.41;4985497;28;20125;-76
2021/11/02 02:23:54;;;;;;;4.55;1.70;;;;;;;4.86;87.65;99760.63;4977747;28;20035;-76
2021/11/02 02:26:43;;;;;;;7.28;1.98;;;;;;;4.83;87.39;99753.22;4971079;28;20027;-76
2021/11/02 02:29:13;;;;;;;6.05;1.73;;;;;;;4.81;87.93;99752.53;4984940;28;20379;-77
2021/11/02 02:31:43;;;;;;;7.10;2.20;;;;;;;4.80;87.28;99748.38;4973978;28;20060;-76
2021/11/02 02:34:12;;;;;;;7.78;2.10;;;;;;;4.78;87.77;99747.69;4983493;28;20494;-76
2021/11/02 02:36:44;;;;;;;5.50;1.98;;;;;;;4.75;87.75;99748.00;4961473;28;20461;-76
2021/11/02 02:39:13;;;;;;;3.53;1.92;;;;;;;4.71;87.65;99746.66;4998807;28;20054;-76
2021/11/02 02:41:47;;;;;;;3.55;1.83;;;;;;;4.69;87.47;99740.88;4974691;28;20038;-77
2021/11/02 02:44:16;;;;;;;6.68;2.10;;;;;;;4.65;87.53;99740.34;4978126;28;20441;-76
2021/11/02 02:46:43;;;;;;;10.10;2.22;;;;;;;4.62;88.05;99743.19;4962055;28;20042;-76
2021/11/02 02:49:11;;;;;;;3.50;1.75;;;;;;;4.60;88.00;99739.16;4981555;28;20031;-76
2021/11/02 02:51:42;;;;;;;6.35;2.10;;;;;;;4.57;88.02;99744.56;4977146;28;20387;-77
2021/11/02 02:54:11;;;;;;;3.63;1.80;;;;;;;4.55;88.25;99746.47;4974853;28;20101;-76
2021/11/02 02:56:42;;;;;;;4.20;2.63;;;;;;;4.53;87.96;99748.38;4969478;28;20053;-77
2021/11/02 02:59:09;;;;;;;4.85;1.90;;;;;;;4.53;88.24;99744.03;4981403;28;20512;-77
2021/11/02 03:01:35;;;;;;;7.85;2.03;;;;;;;4.53;87.59;99743.25;4979318;28;20553;-76
2021/11/02 03:04:14;;;;;;;4.85;2.15;;;;;;;4.51;87.90;99750.28;4971054;28;20159;-77
2021/11/02 03:06:42;;;;;;;6.25;1.80;;;;;;;4.46;88.17;99737.84;4978949;28;20026;-76
2021/11/02 03:09:09;;;;;;;5.70;2.08;;;;;;;4.44;88.66;99744.88;4973950;28;20042;-77
2021/11/02 03:11:38;;;;;;;4.03;1.80;;;;;;;4.40;88.32;99739.22;4987453;28;20026;-78
2021/11/02 03:14:11;;;;;;;5.95;1.65;;;;;;;4.40;88.87;99735.88;4985310;28;20117;-77
2021/11/02 03:17:01;;;;;;;3.85;1.45;;;;;;;4.40;88.69;99734.09;4970895;28;20034;-77
2021/11/02 03:55:24;;;;;;;6.00;1.25;;;;;;;4.05;88.71;99742.44;4982371;28;20121;-78
2021/11/02 03:57:56;;;;;;;5.25;1.58;;;;;;;4.03;88.57;99747.75;4969574;28;20022;-79
2021/11/02 04:37:01;;;;;;;;;;;;;;;3.93;89.64;99738.44;5008037;28;20034;-78
2021/11/02 05:06:41;;;;;;;5.78;3.22;;;;;;;3.91;90.46;99728.31;4980990;28;20372;-78
2021/11/02 05:48:13;;;;;;;13.13;2.33;;;;;;;3.70;90.70;99721.63;4977491;28;20037;-77
2021/11/02 05:51:11;;;;;;;5.85;2.30;;;;;;;3.64;91.10;99719.59;4983592;28;20059;-77
2021/11/02 05:54:05;;;;;;;5.00;2.22;;;;;;;3.61;90.84;99722.44;4980437;28;20080;-76
2021/11/02 05:56:43;;;;;;;8.82;2.58;;;;;;;3.58;91.23;99722.72;4982891;28;20027;-77
2021/11/02 06:27:51;;;;;;;3.45;1.92;;;;;;;3.54;92.30;99723.13;4972692;28;20045;-76
2021/11/02 06:30:25;;;;;;;2.42;1.88;;;;;;;3.50;91.91;99725.97;4979760;28;20356;-76
2021/11/02 06:33:04;;;;;;;2.90;1.90;;;;;;;3.48;91.58;99730.44;4983351;28;20444;-76
2021/11/02 06:35:36;;;;;;;4.55;2.00;;;;;;;3.49;91.48;99726.09;4967734;28;20564;-76
2021/11/02 06:38:40;;;;;;;8.82;2.10;;;;;;;3.50;91.52;99738.78;4969222;28;20404;-76
2021/11/02 07:00:37;;;;;;;6.50;2.35;;;;;;;3.49;91.44;99741.47;4967597;28;20083;-76
2021/11/02 07:19:58;;;;;;;7.53;3.17;;;;;;;3.89;93.33;99748.19;4972695;28;20034;-76
2021/11/02 08:48:56;;;;;;;11.52;4.72;;;;;;;6.08;92.55;99763.59;4982804;28;20059;-76
2021/11/02 08:51:24;;;;;;;19.05;5.40;;;;;;;6.13;92.40;99757.03;4982714;28;20550;-76
2021/11/02 08:53:50;;;;;;;12.88;7.20;;;;;;;6.14;92.38;99753.53;4983108;28;20027;-76
2021/11/02 08:56:16;;;;;;;10.05;7.53;;;;;;;6.19;92.47;99755.63;4975299;28;20037;-76
2021/11/02 08:58:46;;;;;;;9.77;4.03;;;;;;;6.32;92.44;99763.72;4976531;28;20043;-76
2021/11/02 09:01:16;;;;;;;16.38;4.65;;;;;;;6.31;92.21;99758.72;4971052;28;20030;-75
2021/11/02 09:03:47;;;;;;;12.77;3.38;;;;;;;6.29;92.39;99761.47;4973327;28;20035;-75
2021/11/02 09:06:15;;;;;;;9.93;4.38;;;;;;;6.33;92.03;99761.97;4980941;28;20039;-75
2021/11/02 09:08:54;;;;;;;10.63;4.45;;;;;;;6.39;92.42;99769.88;4978933;28;20038;-75
2021/11/02 09:11:21;;;;;;;13.40;3.50;;;;;;;6.35;91.83;99766.00;4958693;28;20826;-75
2021/11/02 09:13:51;;;;;;;6.53;3.10;;;;;;;6.37;92.45;99768.44;5000995;28;20447;-74
2021/11/02 09:16:17;;;;;;;10.48;4.47;;;;;;;6.37;92.73;99768.44;4995683;28;20118;-75
2021/11/02 09:18:45;;;;;;;13.32;4.63;;;;;;;6.41;92.71;99767.16;4983286;28;20080;-75
2021/11/02 09:21:11;;;;;;;12.40;4.85;;;;;;;6.42;92.98;99779.06;5050582;28;20399;-75
2021/11/02 09:23:41;;;;;;;53.20;17.73;;;;;;;6.44;92.94;99772.00;4983411;28;20031;-75
2021/11/02 09:26:07;;;;;;;21.35;7.45;;;;;;;6.66;91.83;99775.00;4981541;28;20073;-74
2021/11/02 09:28:32;;;;;;;22.20;9.48;;;;;;;6.79;90.98;99783.09;4977115;28;20038;-75
2021/11/02 09:30:58;;;;;;;10.82;3.08;;;;;;;6.87;90.08;99782.31;4978717;28;20031;-74
2021/11/02 09:33:24;;;;;;;10.00;2.95;;;;;;;6.92;90.14;99774.91;4974271;28;20096;-76
2021/11/02 09:36:05;;;;;;;9.50;3.17;;;;;;;6.95;90.66;99782.31;4980313;28;20499;-75
2021/11/02 09:38:49;;;;;;;11.40;2.58;;;;;;;6.98;90.18;99782.03;4976939;28;20263;-75
2021/11/02 09:41:36;;;;;;;12.02;2.85;;;;;;;7.00;91.24;99777.50;4968078;28;20035;-76
2021/11/02 09:44:15;;;;;;;9.75;2.38;;;;;;;7.03;90.77;99769.47;5006575;28;20034;-77
2021/11/02 09:46:59;;;;;;;15.52;3.15;;;;;;;7.13;89.46;99771.91;4985598;28;20043;-77
2021/11/02 09:49:33;;;;;;;;;;;;;;;7.14;89.91;99776.06;4975351;28;20035;-74
2021/11/02 09:52:18;;;;;;;11.53;3.10;;;;;;;7.11;90.60;99771.25;4932220;28;1093772;-75
2021/11/02 09:55:16;;;;;;;16.50;2.45;;;;;;;7.19;89.93;99774.63;4977417;28;20065;-75
2021/11/02 09:57:56;;;;;;;10.82;2.10;;;;;;;7.23;90.65;99769.97;4971564;28;20125;-75
2021/11/02 10:00:27;;;;;;;7.45;2.85;;;;;;;7.42;90.93;99779.19;4971928;28;20037;-74
2021/11/02 10:03:25;;;;;;;4.65;2.50;;;;;;;7.33;90.91;99775.81;4980022;28;20076;-75
2021/11/02 10:06:18;;;;;;;11.73;2.22;;;;;;;7.43;89.43;99785.97;4976190;28;20092;-74
2021/11/02 10:08:53;;;;;;;6.28;1.98;;;;;;;7.53;88.80;99771.13;4973781;28;20098;-75
2021/11/02 10:11:50;;;;;;;7.20;2.42;;;;;;;7.54;89.87;99777.91;4977480;28;20046;-75
2021/11/02 10:14:44;;;;;;;9.27;2.22;;;;;;;7.55;89.18;99771.81;4979286;28;20034;-74
2021/11/02 10:17:25;;;;;;;10.05;2.33;;;;;;;7.62;89.97;99769.38;4978806;28;20030;-74
2021/11/02 10:20:10;;;;;;;11.38;2.63;;;;;;;7.66;90.71;99769.84;5001794;28;20045;-75
2021/11/02 10:23:09;;;;;;;7.07;2.40;;;;;;;7.70;90.52;99771.94;4967482;28;20451;-74
2021/11/02 10:25:54;;;;;;;5.50;2.45;;;;;;;7.66;90.69;99770.66;4965864;28;20027;-74
2021/11/02 10:28:40;;;;;;;10.38;2.60;;;;;;;7.75;91.34;99769.69;4959494;28;20116;-74
2021/11/02 10:31:27;;;;;;;9.00;3.30;;;;;;;7.75;91.78;99772.25;4963859;28;20082;-75
2021/11/02 10:34:22;;;;;;;6.65;2.30;;;;;;;7.87;91.48;99772.72;4975278;28;20096;-75
2021/11/02 10:36:55;;;;;;;4.95;2.17;;;;;;;8.03;90.88;99769.31;4961409;28;20233;-75
2021/11/02 10:39:35;;;;;;;24.05;3.30;;;;;;;8.14;90.48;99770.78;4982237;28;20030;-75
2021/11/02 10:42:16;;;;;;;8.82;2.65;;;;;;;8.11;89.93;99768.50;4981006;28;20052;-75
2021/11/02 10:44:49;;;;;;;4.18;2.25;;;;;;;8.22;90.02;99768.16;4979331;28;20096;-74
2021/11/02 10:47:25;;;;;;;6.15;2.30;;;;;;;8.22;89.94;99763.00;4964917;28;20054;-74
2021/11/02 10:50:05;;;;;;;4.57;2.20;;;;;;;8.43;89.70;99765.06;4978565;28;20379;-73
2021/11/02 10:52:32;;;;;;;4.30;2.08;;;;;;;8.37;88.17;99763.91;4982105;28;20584;-73
2021/11/02 10:55:27;;;;;;;6.18;1.80;;;;;;;8.34;88.08;99768.59;4980080;28;20070;-73
2021/11/02 10:58:21;;;;;;;5.70;2.10;;;;;;;8.38;87.65;99755.19;4998683;28;20050;-74
2021/11/02 11:00:50;;;;;;;;;;;;;;;8.48;87.25;99757.63;4961571;28;20038;-74
2021/11/02 11:03:17;;;;;;;11.57;6.30;;;;;;;8.47;88.03;99750.81;4975779;28;19918;-75
2021/11/02 11:05:47;;;;;;;36.22;20.33;;;;;;;8.59;88.69;99759.03;4980820;28;20034;-74
2021/11/02 11:08:17;;;;;;;4.80;3.40;;;;;;;8.52;86.44;99761.47;5000994;28;20038;-74
2021/11/02 11:10:49;;;;;;;10.30;5.07;;;;;;;8.63;86.75;99757.72;4976064;28;20562;-75
2021/11/02 11:13:19;;;;;;;5.50;2.40;;;;;;;8.61;86.56;99757.09;4979752;28;20023;-74
2021/11/02 11:15:46;;;;;;;4.10;2.08;;;;;;;8.56;85.87;99754.97;4971936;28;20035;-76
2021/11/02 11:18:18;;;;;;;3.72;1.92;;;;;;;8.63;85.73;99757.72;4975367;28;20050;-76
2021/11/02 11:20:47;;;;;;;9.65;3.28;;;;;;;8.59;85.31;99753.88;4979603;28;20042;-73
2021/11/02 11:23:13;;;;;;;7.43;2.03;;;;;;;8.62;86.61;99750.91;4980091;28;20053;-74
2021/11/02 11:25:50;;;;;;;5.43;2.05;;;;;;;8.67;87.26;99750.44;4982556;28;20036;-74
2021/11/02 11:28:20;;;;;;;4.72;2.25;;;;;;;8.70;87.31;99750.91;4984185;28;20027;-74
2021/11/02 11:30:47;;;;;;;4.95;2.53;;;;;;;8.65;87.35;99752.38;4984153;28;20099;-73
2021/11/02 11:33:20;;;;;;;10.90;2.80;;;;;;;8.70;87.20;99737.97;4977778;28;20030;-74
2021/11/02 11:35:49;;;;;;;7.32;3.17;;;;;;;8.71;87.79;99749.13;4985082;28;20034;-73
2021/11/02 11:38:16;;;;;;;10.27;3.55;;;;;;;8.68;88.35;99736.53;4980368;28;20085;-73
2021/11/02 11:40:43;;;;;;;15.00;4.28;;;;;;;8.62;89.60;99743.16;4964682;28;20487;-74
2021/11/02 11:43:10;;;;;;;10.60;3.60;;;;;;;8.81;89.06;99738.56;4990692;28;20034;-75
2021/11/02 11:45:39;;;;;;;8.00;3.80;;;;;;;8.74;88.68;99731.50;4982367;28;20121;-75
2021/11/02 11:48:08;;;;;;;13.32;3.72;;;;;;;8.82;88.81;99729.84;4985838;28;20036;-75
2021/11/02 11:50:39;;;;;;;8.95;3.72;;;;;;;8.83;89.91;99729.66;4989029;28;20112;-75
2021/11/02 11:53:05;;;;;;;6.53;2.92;;;;;;;8.87;89.67;99732.69;4972570;28;20035;-74
2021/11/02 11:55:39;;;;;;;6.50;3.65;;;;;;;8.84;90.05;99738.22;4984468;28;20042;-75
2021/11/02 11:58:13;;;;;;;7.65;3.13;;;;;;;8.88;88.95;99732.53;4974483;28;20038;-75
2021/11/02 12:00:41;;;;;;;8.05;2.58;;;;;;;8.73;89.21;99729.88;4983300;28;20035;-74
2021/11/02 12:03:41;;;;;;;10.20;2.60;;;;;;;8.76;89.00;99726.16;4981314;28;20042;-75
2021/11/02 12:06:19;;;;;;;9.35;2.78;;;;;;;8.86;89.33;99713.81;4978740;28;20565;-74
2021/11/02 12:09:02;;;;;;;11.95;3.20;;;;;;;9.00;87.98;99720.00;4971005;28;20113;-74
2021/11/02 12:11:30;;;;;;;6.97;2.97;;;;;;;9.07;87.98;99714.97;4974544;28;20398;-75
2021/11/02 12:14:09;;;;;;;8.55;3.50;;;;;;;9.10;87.71;99712.06;4978111;28;20386;-74
2021/11/02 12:16:40;;;;;;;8.70;4.07;;;;;;;9.17;87.67;99705.19;4972819;28;20027;-75
2021/11/02 12:19:16;;;;;;;9.20;3.95;;;;;;;9.24;87.90;99705.31;4977531;28;20053;-75
2021/11/02 12:21:48;;;;;;;9.23;4.07;;;;;;;9.31;86.74;99696.69;4981259;28;20038;-75
2021/11/02 12:24:16;;;;;;;10.68;4.55;;;;;;;9.14;86.96;99697.78;4981723;28;20062;-74
2021/11/02 12:26:50;;;;;;;12.00;4.15;;;;;;;9.22;86.61;99697.72;4972455;28;20035;-74
2021/11/02 12:29:28;;;;;;;12.48;4.78;;;;;;;9.26;84.93;99693.81;4976954;28;20031;-74
2021/11/02 12:31:59;;;;;;;10.13;3.40;;;;;;;9.36;84.69;99703.91;4979514;28;20041;-74
2021/11/02 12:34:41;;;;;;;10.57;3.63;;;;;;;9.32;84.30;99700.88;4980228;28;20038;-75
2021/11/02 12:37:10;;;;;;;16.08;4.57;;;;;;;9.34;84.65;99698.09;4995260;28;20046;-74
2021/11/02 12:39:37;;;;;;;8.02;4.05;;;;;;;9.28;85.94;99694.44;4981198;28;20038;-75
2021/11/02 12:42:03;;;;;;;16.67;5.03;;;;;;;9.37;85.99;99697.75;4976899;28;20404;-75
2021/11/02 12:44:32;;;;;;;10.10;4.72;;;;;;;9.49;85.91;99686.03;4974714;28;20039;-74
2021/11/02 12:47:00;;;;;;;12.63;4.70;;;;;;;9.52;85.52;99683.06;4978021;28;20109;-74
2021/11/02 12:49:45;;;;;;;13.77;4.53;;;;;;;9.48;85.68;99687.00;4985760;28;20026;-74
2021/11/02 12:52:12;;;;;;;9.98;4.07;;;;;;;9.44;85.98;99688.31;4971535;28;20534;-74
2021/11/02 12:54:40;;;;;;;11.30;5.20;;;;;;;9.39;86.15;99690.63;4986085;28;20109;-74
2021/11/02 12:57:16;;;;;;;12.20;5.72;;;;;;;9.48;85.89;99684.41;4983759;28;20117;-75
2021/11/02 12:59:46;;;;;;;9.18;4.60;;;;;;;9.45;85.74;99679.56;4986654;28;20107;-77
2021/11/02 13:02:30;;;;;;;9.00;4.75;;;;;;;9.41;85.89;99683.50;4979526;28;20034;-72
2021/11/02 13:05:02;;;;;;;13.98;4.97;;;;;;;9.40;86.04;99675.91;4974216;28;20045;-74
2021/11/02 13:07:33;;;;;;;15.35;5.13;;;;;;;9.62;85.17;99682.00;4960783;28;20034;-74
2021/11/02 13:10:00;;;;;;;12.63;5.30;;;;;;;9.56;85.32;99673.16;4978285;28;20034;-74
2021/11/02 13:12:26;;;;;;;14.73;5.38;;;;;;;9.57;85.34;99668.78;4984535;28;20530;-76
2021/11/02 13:15:00;;;;;;;20.55;5.47;;;;;;;9.54;85.97;99673.34;4985403;28;20133;-77
2021/11/02 13:17:36;;;;;;;9.23;4.90;;;;;;;9.67;85.14;99672.75;4973618;28;20034;-76
2021/11/02 13:20:03;;;;;;;11.50;4.10;;;;;;;9.73;84.75;99668.63;4982143;28;20045;-75
2021/11/02 13:22:29;;;;;;;9.48;5.10;;;;;;;9.72;84.15;99667.03;5000925;28;20043;-73
2021/11/02 13:24:59;;;;;;;9.90;4.35;;;;;;;9.76;84.26;99668.28;4977752;28;20035;-77
2021/11/02 13:27:45;;;;;;;10.60;4.47;;;;;;;9.76;84.49;99665.69;4983720;28;20083;-75
2021/11/02 13:30:32;;;;;;;5.53;4.00;;;;;;;9.77;84.09;99674.25;4973878;28;20038;-74
2021/11/02 13:33:16;;;;;;;12.30;4.57;;;;;;;9.89;83.75;99667.69;4978348;28;20035;-75
2021/11/02 13:36:02;;;;;;;12.50;3.45;;;;;;;9.87;83.53;99660.09;4982031;28;20041;-73
2021/11/02 13:38:30;;;;;;;9.13;4.63;;;;;;;9.84;82.99;99667.41;4974023;28;20073;-73
2021/11/02 13:41:16;;;;;;;12.57;3.97;;;;;;;9.70;84.07;99676.75;4970234;28;20046;-74
2021/11/02 13:43:49;;;;;;;6.07;3.40;;;;;;;9.76;84.12;99670.88;4973585;28;20391;-74
2021/11/02 13:46:18;;;;;;;6.60;3.25;;;;;;;9.73;83.72;99666.06;4979920;28;20120;-76
2021/11/02 13:48:44;;;;;;;8.18;3.60;;;;;;;9.64;84.38;99669.69;4989684;28;20136;-74
2021/11/02 13:51:15;;;;;;;9.15;3.67;;;;;;;9.60;84.37;99663.28;4973239;28;20505;-77
2021/11/02 13:53:42;;;;;;;5.60;3.90;;;;;;;9.52;84.65;99659.78;4976333;28;20034;-74
2021/11/02 13:56:27;;;;;;;5.82;3.50;;;;;;;9.53;84.51;99668.34;4978842;28;20034;-77
2021/11/02 13:58:54;;;;;;;7.32;3.35;;;;;;;9.49;84.72;99667.09;4977990;28;20038;-75
2021/11/02 14:01:25;;;;;;;9.85;3.38;;;;;;;9.39;85.51;99663.97;4975499;28;20058;-75
2021/11/02 14:04:00;;;;;;;10.48;2.88;;;;;;;9.42;85.67;99661.81;4983586;28;20054;-78
2021/11/02 14:06:27;;;;;;;4.78;2.38;;;;;;;9.32;86.16;99663.84;4971941;28;20038;-76
2021/11/02 14:08:54;;;;;;;9.77;2.75;;;;;;;9.31;86.71;99657.06;4981498;28;20072;-76
2021/11/02 14:11:25;;;;;;;10.07;3.85;;;;;;;9.38;86.88;99668.34;4979051;28;20038;-74
2021/11/02 14:13:53;;;;;;;4.15;2.90;;;;;;;9.24;87.50;99659.53;4980118;28;20187;-75
2021/11/02 14:16:41;;;;;;;7.03;3.58;;;;;;;9.23;87.79;99662.31;4976996;28;20041;-75
2021/11/02 14:19:35;;;;;;;7.40;3.55;;;;;;;9.24;88.44;99669.09;4979508;28;20042;-76
2021/11/02 14:22:12;;;;;;;5.70;2.67;;;;;;;9.11;89.39;99670.47;4977694;28;20039;-75
2021/11/02 14:24:42;;;;;;;10.18;3.15;;;;;;;9.19;88.91;99671.41;4981061;28;20034;-78
2021/11/02 14:27:19;;;;;;;5.05;2.15;;;;;;;9.19;88.57;99673.97;4967187;28;20076;-79
2021/11/02 14:29:56;;;;;;;4.25;2.20;;;;;;;9.25;88.62;99686.22;4979520;28;20039;-82
2021/11/02 14:32:37;;;;;;;4.68;1.60;;;;;;;9.00;87.90;99683.00;4966761;28;20034;-82
2021/11/02 14:35:12;;;;;;;6.47;3.47;;;;;;;8.95;87.55;99692.09;4977882;28;20403;-79
2021/11/02 14:37:47;;;;;;;8.40;4.30;;;;;;;8.91;86.42;99692.59;4959029;28;20034;-76
2021/11/02 14:40:33;;;;;;;8.25;4.47;;;;;;;8.84;87.63;99700.25;4984258;28;20031;-79
2021/11/02 14:43:12;;;;;;;8.23;4.75;;;;;;;8.82;87.41;99699.63;4963031;28;20117;-77
2021/11/02 14:45:42;;;;;;;11.25;5.82;;;;;;;8.86;86.92;99695.72;4967348;28;20041;-77
2021/11/02 14:48:32;;;;;;;2.22;1.35;;;;;;;8.95;86.79;99704.22;4980133;28;21202;-77
2021/11/02 14:51:17;;;;;;;12.02;6.28;;;;;;;8.99;86.06;99705.50;4982123;28;20460;-77
2021/11/02 14:53:44;;;;;;;2.90;2.10;;;;;;;9.10;86.17;99699.91;4976422;28;20076;-76
2021/11/02 14:56:12;;;;;;;8.85;2.22;;;;;;;8.91;87.01;99698.59;4976639;28;20350;-75
2021/11/02 14:58:41;;;;;;;7.18;3.95;;;;;;;8.87;85.92;99697.34;4976627;28;20049;-75
2021/11/02 15:01:29;;;;;;;9.40;5.78;;;;;;;8.85;86.34;99703.63;4978462;28;20160;-76
2021/11/02 15:04:06;;;;;;;11.05;6.15;;;;;;;8.71;87.54;99703.38;4984249;28;20499;-76
2021/11/02 15:06:35;;;;;;;7.47;3.30;;;;;;;8.70;87.99;99713.88;4988043;28;20394;-76
2021/11/02 15:09:04;;;;;;;26.90;14.70;;;;;;;8.63;88.72;99708.63;4983796;28;20022;-75
2021/11/02 15:11:30;;;;;;;17.75;8.95;;;;;;;8.67;89.04;99709.88;5007626;28;20095;-75
2021/11/02 15:13:58;;;;;;;10.00;4.80;;;;;;;8.68;89.39;99713.25;4980403;28;20038;-75
2021/11/02 15:16:25;;;;;;;5.75;2.30;;;;;;;8.74;89.37;99710.03;4975572;28;20043;-76
2021/11/02 15:19:12;;;;;;;4.20;1.85;;;;;;;8.92;88.54;99712.31;4981000;28;20116;-77
2021/11/02 15:21:41;;;;;;;4.88;1.88;;;;;;;8.88;88.42;99717.03;4979087;28;20113;-75
2021/11/02 15:24:21;;;;;;;5.00;1.80;;;;;;;8.85;88.07;99717.34;4983427;28;20031;-75
2021/11/02 15:26:52;;;;;;;4.13;1.50;;;;;;;9.03;86.90;99716.28;4976218;28;20403;-75
2021/11/02 15:29:22;;;;;;;4.75;1.60;;;;;;;8.80;87.41;99717.09;4968058;28;20633;-75
2021/11/02 15:32:13;;;;;;;2.17;1.65;;;;;;;8.66;87.94;99726.34;4976093;28;20034;-75
2021/11/02 15:34:52;;;;;;;2.67;1.60;;;;;;;8.71;87.44;99729.22;4977542;28;20536;-74
2021/11/02 15:37:20;;;;;;;5.25;2.08;;;;;;;8.63;88.24;99726.69;4977553;28;20030;-74
2021/11/02 15:39:57;;;;;;;2.88;1.83;;;;;;;8.63;87.99;99724.13;4984468;28;20064;-74
2021/11/02 15:42:35;;;;;;;5.88;1.52;;;;;;;8.58;88.22;99719.44;4984594;28;20829;-75
2021/11/02 15:45:10;;;;;;;4.15;2.33;;;;;;;8.58;88.07;99723.81;4980716;28;20079;-75
2021/11/02 15:47:42;;;;;;;6.25;2.17;;;;;;;8.58;88.24;99723.81;4978188;28;20534;-74
2021/11/02 15:50:11;;;;;;;5.18;2.47;;;;;;;8.50;88.61;99721.28;4980559;28;20111;-75
2021/11/02 15:52:38;;;;;;;5.38;2.15;;;;;;;8.48;88.80;99729.19;4981840;28;20038;-74
2021/11/02 15:55:15;;;;;;;5.25;2.50;;;;;;;8.49;88.32;99725.63;4977896;28;20087;-76
2021/11/02 15:57:54;;;;;;;4.57;2.40;;;;;;;8.52;87.91;99738.22;4977660;28;20126;-75
2021/11/02 16:00:28;;;;;;;4.03;2.65;;;;;;;8.48;88.48;99729.19;4985066;28;20038;-74
2021/11/02 16:02:55;;;;;;;7.80;3.92;;;;;;;8.45;88.22;99726.94;4975616;28;20122;-75
2021/11/02 16:05:24;;;;;;;11.45;5.18;;;;;;;8.37;88.15;99730.31;4981798;28;20083;-74
2021/11/02 16:07:55;;;;;;;8.65;4.32;;;;;;;8.39;88.43;99735.34;4980862;28;20081;-75
2021/11/02 16:10:38;;;;;;;20.48;9.55;;;;;;;8.35;88.74;99734.84;4980577;28;20491;-75
2021/11/02 16:13:05;;;;;;;49.92;22.35;;;;;;;8.29;88.93;99743.28;4981210;28;20349;-74
2021/11/02 16:15:34;;;;;;;60.17;24.63;;;;;;;8.30;89.23;99741.50;4969031;28;20371;-74
2021/11/02 16:18:02;;;;;;;33.83;14.73;;;;;;;8.25;89.20;99752.34;4977549;28;20054;-74
2021/11/02 16:20:37;;;;;;;17.70;9.38;;;;;;;8.23;89.28;99749.13;4981017;28;20034;-75
2021/11/02 16:23:09;;;;;;;33.20;18.10;;;;;;;8.20;89.43;99754.59;4976649;28;20109;-75
2021/11/02 16:25:41;;;;;;;34.13;20.70;;;;;;;8.15;89.48;99751.72;4978736;28;20034;-74
2021/11/02 16:28:18;;;;;;;26.85;16.60;;;;;;;8.11;89.46;99758.97;4991679;28;20038;-75
2021/11/02 16:30:47;;;;;;;22.83;13.13;;;;;;;8.11;89.10;99764.13;5001427;28;20046;-75
2021/11/02 16:33:14;;;;;;;21.92;12.55;;;;;;;8.04;89.27;99752.06;5003744;28;20062;-75
2021/11/02 16:35:41;;;;;;;12.27;8.95;;;;;;;8.02;89.56;99761.75;4989441;28;20040;-74
2021/11/02 16:38:37;;;;;;;26.83;14.20;;;;;;;8.01;89.61;99755.78;4985213;28;20534;-74
2021/11/02 16:41:20;;;;;;;30.15;18.33;;;;;;;8.00;89.49;99761.91;4985116;28;20053;-74
2021/11/02 16:43:51;;;;;;;27.20;15.93;;;;;;;8.00;89.72;99764.47;4983857;28;20034;-75
2021/11/02 16:46:27;;;;;;;22.38;12.25;;;;;;;7.99;89.64;99765.47;4984312;28;20125;-74
2021/11/02 16:49:02;;;;;;;18.83;9.55;;;;;;;7.97;89.45;99767.41;4979429;28;20026;-75
2021/11/02 16:51:51;;;;;;;11.25;7.13;;;;;;;7.94;89.49;99760.78;4969573;28;20027;-74
2021/11/02 16:54:21;;;;;;;12.10;5.57;;;;;;;7.92;89.31;99767.88;4978041;28;20060;-74
2021/11/02 16:57:01;;;;;;;8.32;5.20;;;;;;;7.89;89.16;99767.41;4978215;28;20052;-74
2021/11/02 16:59:42;;;;;;;8.35;5.38;;;;;;;7.88;89.39;99770.97;4974598;28;20038;-74
2021/11/02 17:02:24;;;;;;;10.40;5.45;;;;;;;7.84;89.47;99773.06;4979591;28;20030;-75